sensor_id;sensor_type;location;lat;lon;timestamp;P1;durP1;ratioP1;P2;durP2;ratioP2
2576;SDS011;1298;51.252;6.802;2023-09-07T00:00:01;885.63;;;825.92;;
2576;SDS011;1298;51.252;6.802;2023-09-07T00:02:49;953.97;;;891.95;;
2576;SDS011;1298;51.252;6.802;2023-09-07T00:05:34;883.80;;;824.08;;
2576;SDS011;1298;51.252;6.802;2023-09-07T00:08:22;884.55;;;825.17;;
2576;SDS011;1298;51.252;6.802;2023-09-07T00:11:08;873.58;;;814.80;;
2576;SDS011;1298;51.252;6.802;2023-09-07T00:13:54;923.50;;;862.78;;
2576;SDS011;1298;51.252;6.802;2023-09-07T00:16:41;865.42;;;806.65;;
2576;SDS011;1298;51.252;6.802;2023-09-07T00:19:27;942.63;;;881.33;;
2576;SDS011;1298;51.252;6.802;2023-09-07T00:22:15;878.65;;;819.22;;
2576;SDS011;1298;51.252;6.802;2023-09-07T00:25:02;854.28;;;795.95;;
2576;SDS011;1298;51.252;6.802;2023-09-07T00:27:50;881.25;;;822.03;;
2576;SDS011;1298;51.252;6.802;2023-09-07T00:30:36;926.60;;;865.80;;
2576;SDS011;1298;51.252;6.802;2023-09-07T00:33:21;875.05;;;816.10;;
2576;SDS011;1298;51.252;6.802;2023-09-07T00:39:56;856.40;;;797.95;;
2576;SDS011;1298;51.252;6.802;2023-09-07T00:43:06;861.78;;;803.03;;
2576;SDS011;1298;51.252;6.802;2023-09-07T00:46:19;871.28;;;812.03;;
2576;SDS011;1298;51.252;6.802;2023-09-07T00:49:31;833.08;;;775.42;;
2576;SDS011;1298;51.252;6.802;2023-09-07T00:52:17;921.53;;;860.78;;
2576;SDS011;1298;51.252;6.802;2023-09-07T00:55:04;861.42;;;802.35;;
2576;SDS011;1298;51.252;6.802;2023-09-07T00:57:50;854.80;;;796.25;;
2576;SDS011;1298;51.252;6.802;2023-09-07T01:00:37;860.78;;;802.10;;
2576;SDS011;1298;51.252;6.802;2023-09-07T01:03:23;845.05;;;786.20;;
2576;SDS011;1298;51.252;6.802;2023-09-07T01:06:12;900.30;;;840.25;;
2576;SDS011;1298;51.252;6.802;2023-09-07T01:09:10;871.28;;;811.55;;
2576;SDS011;1298;51.252;6.802;2023-09-07T01:12:01;852.95;;;794.60;;
2576;SDS011;1298;51.252;6.802;2023-09-07T01:14:51;823.45;;;765.83;;
2576;SDS011;1298;51.252;6.802;2023-09-07T01:17:42;840.78;;;782.55;;
2576;SDS011;1298;51.252;6.802;2023-09-07T01:20:28;858.67;;;800.30;;
2576;SDS011;1298;51.252;6.802;2023-09-07T01:23:18;893.40;;;833.95;;
2576;SDS011;1298;51.252;6.802;2023-09-07T01:26:05;837.03;;;779.00;;
2576;SDS011;1298;51.252;6.802;2023-09-07T01:28:51;844.28;;;786.20;;
2576;SDS011;1298;51.252;6.802;2023-09-07T01:31:37;833.97;;;775.90;;
2576;SDS011;1298;51.252;6.802;2023-09-07T01:34:23;866.92;;;808.13;;
2576;SDS011;1298;51.252;6.802;2023-09-07T01:37:09;851.03;;;792.35;;
2576;SDS011;1298;51.252;6.802;2023-09-07T01:39:56;856.72;;;798.25;;
2576;SDS011;1298;51.252;6.802;2023-09-07T01:42:41;850.33;;;792.05;;
2576;SDS011;1298;51.252;6.802;2023-09-07T01:45:27;910.10;;;850.05;;
2576;SDS011;1298;51.252;6.802;2023-09-07T01:48:13;923.88;;;863.35;;
2576;SDS011;1298;51.252;6.802;2023-09-07T01:50:59;862.38;;;803.88;;
2576;SDS011;1298;51.252;6.802;2023-09-07T01:53:46;870.20;;;811.20;;
2576;SDS011;1298;51.252;6.802;2023-09-07T01:56:33;864.90;;;806.22;;
2576;SDS011;1298;51.252;6.802;2023-09-07T01:59:19;834.63;;;777.03;;
2576;SDS011;1298;51.252;6.802;2023-09-07T02:02:05;868.40;;;809.85;;
2576;SDS011;1298;51.252;6.802;2023-09-07T02:04:50;864.30;;;805.80;;
2576;SDS011;1298;51.252;6.802;2023-09-07T02:07:36;830.65;;;773.05;;
2576;SDS011;1298;51.252;6.802;2023-09-07T02:10:22;916.55;;;856.28;;
2576;SDS011;1298;51.252;6.802;2023-09-07T02:13:09;913.33;;;852.97;;
2576;SDS011;1298;51.252;6.802;2023-09-07T02:15:55;910.90;;;850.78;;
2576;SDS011;1298;51.252;6.802;2023-09-07T02:18:41;843.90;;;785.70;;
2576;SDS011;1298;51.252;6.802;2023-09-07T02:21:36;893.25;;;833.80;;
2576;SDS011;1298;51.252;6.802;2023-09-07T02:24:22;843.67;;;785.80;;
2576;SDS011;1298;51.252;6.802;2023-09-07T02:27:07;837.95;;;779.58;;
2576;SDS011;1298;51.252;6.802;2023-09-07T02:29:54;832.55;;;774.63;;
2576;SDS011;1298;51.252;6.802;2023-09-07T02:32:40;805.35;;;748.50;;
2576;SDS011;1298;51.252;6.802;2023-09-07T02:35:26;883.92;;;824.50;;
2576;SDS011;1298;51.252;6.802;2023-09-07T02:38:12;887.42;;;827.85;;
2576;SDS011;1298;51.252;6.802;2023-09-07T02:40:58;798.78;;;742.08;;
2576;SDS011;1298;51.252;6.802;2023-09-07T02:43:43;883.83;;;824.45;;
2576;SDS011;1298;51.252;6.802;2023-09-07T02:46:31;817.80;;;760.60;;
2576;SDS011;1298;51.252;6.802;2023-09-07T02:49:16;798.00;;;741.15;;
2576;SDS011;1298;51.252;6.802;2023-09-07T02:52:02;896.75;;;837.20;;
2576;SDS011;1298;51.252;6.802;2023-09-07T02:54:49;820.83;;;763.20;;
2576;SDS011;1298;51.252;6.802;2023-09-07T02:57:45;819.75;;;762.47;;
2576;SDS011;1298;51.252;6.802;2023-09-07T03:00:34;825.00;;;767.35;;
2576;SDS011;1298;51.252;6.802;2023-09-07T03:03:36;790.38;;;733.88;;
2576;SDS011;1298;51.252;6.802;2023-09-07T03:06:24;886.40;;;827.08;;
2576;SDS011;1298;51.252;6.802;2023-09-07T03:09:10;821.45;;;763.08;;
2576;SDS011;1298;51.252;6.802;2023-09-07T03:11:56;890.42;;;830.10;;
2576;SDS011;1298;51.252;6.802;2023-09-07T03:14:42;889.17;;;829.72;;
2576;SDS011;1298;51.252;6.802;2023-09-07T03:17:28;888.60;;;829.10;;
2576;SDS011;1298;51.252;6.802;2023-09-07T03:20:15;824.80;;;767.47;;
2576;SDS011;1298;51.252;6.802;2023-09-07T03:23:01;799.05;;;742.30;;
2576;SDS011;1298;51.252;6.802;2023-09-07T03:25:47;826.42;;;769.25;;
2576;SDS011;1298;51.252;6.802;2023-09-07T03:28:32;819.15;;;762.28;;
2576;SDS011;1298;51.252;6.802;2023-09-07T03:31:18;860.10;;;801.78;;
2576;SDS011;1298;51.252;6.802;2023-09-07T03:34:03;791.50;;;735.28;;
2576;SDS011;1298;51.252;6.802;2023-09-07T03:36:50;876.15;;;817.17;;
2576;SDS011;1298;51.252;6.802;2023-09-07T03:39:36;827.38;;;769.92;;
2576;SDS011;1298;51.252;6.802;2023-09-07T03:42:21;796.22;;;739.53;;
2576;SDS011;1298;51.252;6.802;2023-09-07T03:45:07;884.80;;;825.78;;
2576;SDS011;1298;51.252;6.802;2023-09-07T03:47:53;834.45;;;776.83;;
2576;SDS011;1298;51.252;6.802;2023-09-07T03:50:38;824.65;;;767.60;;
2576;SDS011;1298;51.252;6.802;2023-09-07T03:53:25;819.72;;;762.75;;
2576;SDS011;1298;51.252;6.802;2023-09-07T03:56:11;828.30;;;770.85;;
2576;SDS011;1298;51.252;6.802;2023-09-07T03:58:56;874.60;;;815.80;;
2576;SDS011;1298;51.252;6.802;2023-09-07T04:01:42;802.50;;;746.08;;
2576;SDS011;1298;51.252;6.802;2023-09-07T04:04:28;846.47;;;788.22;;
2576;SDS011;1298;51.252;6.802;2023-09-07T04:07:13;827.33;;;769.92;;
2576;SDS011;1298;51.252;6.802;2023-09-07T04:10:00;882.75;;;823.58;;
2576;SDS011;1298;51.252;6.802;2023-09-07T04:12:46;830.65;;;773.35;;
2576;SDS011;1298;51.252;6.802;2023-09-07T04:15:32;832.78;;;775.28;;
2576;SDS011;1298;51.252;6.802;2023-09-07T04:18:18;808.15;;;751.35;;
2576;SDS011;1298;51.252;6.802;2023-09-07T04:21:06;816.42;;;759.50;;
2576;SDS011;1298;51.252;6.802;2023-09-07T04:23:52;880.53;;;821.45;;
2576;SDS011;1298;51.252;6.802;2023-09-07T04:26:39;804.47;;;747.67;;
2576;SDS011;1298;51.252;6.802;2023-09-07T04:29:25;896.55;;;836.58;;
2576;SDS011;1298;51.252;6.802;2023-09-07T04:32:10;803.15;;;746.05;;
2576;SDS011;1298;51.252;6.802;2023-09-07T04:34:56;791.22;;;734.72;;
2576;SDS011;1298;51.252;6.802;2023-09-07T04:37:43;824.05;;;766.47;;
2576;SDS011;1298;51.252;6.802;2023-09-07T04:40:29;823.50;;;766.13;;
2576;SDS011;1298;51.252;6.802;2023-09-07T04:43:16;821.05;;;762.78;;
2576;SDS011;1298;51.252;6.802;2023-09-07T04:46:01;796.85;;;740.13;;
2576;SDS011;1298;51.252;6.802;2023-09-07T04:48:46;866.50;;;807.53;;
2576;SDS011;1298;51.252;6.802;2023-09-07T04:51:32;796.10;;;739.35;;
2576;SDS011;1298;51.252;6.802;2023-09-07T04:54:18;823.38;;;765.10;;
2576;SDS011;1298;51.252;6.802;2023-09-07T04:57:03;815.47;;;758.40;;
2576;SDS011;1298;51.252;6.802;2023-09-07T04:59:51;814.85;;;757.58;;
2576;SDS011;1298;51.252;6.802;2023-09-07T05:02:36;805.83;;;748.65;;
2576;SDS011;1298;51.252;6.802;2023-09-07T05:05:25;866.40;;;807.90;;
2576;SDS011;1298;51.252;6.802;2023-09-07T05:08:11;820.85;;;762.88;;
2576;SDS011;1298;51.252;6.802;2023-09-07T05:10:56;830.75;;;772.65;;
2576;SDS011;1298;51.252;6.802;2023-09-07T05:13:43;798.42;;;741.53;;
2576;SDS011;1298;51.252;6.802;2023-09-07T05:16:30;796.83;;;739.55;;
2576;SDS011;1298;51.252;6.802;2023-09-07T05:19:16;824.30;;;766.65;;
2576;SDS011;1298;51.252;6.802;2023-09-07T05:22:02;824.15;;;766.50;;
2576;SDS011;1298;51.252;6.802;2023-09-07T05:24:48;827.03;;;769.00;;
2576;SDS011;1298;51.252;6.802;2023-09-07T05:27:33;882.90;;;823.72;;
2576;SDS011;1298;51.252;6.802;2023-09-07T05:30:19;882.88;;;823.30;;
2576;SDS011;1298;51.252;6.802;2023-09-07T05:33:06;806.72;;;749.53;;
2576;SDS011;1298;51.252;6.802;2023-09-07T05:35:53;833.10;;;774.97;;
2576;SDS011;1298;51.252;6.802;2023-09-07T05:38:38;833.15;;;775.33;;
2576;SDS011;1298;51.252;6.802;2023-09-07T05:41:24;808.25;;;751.00;;
2576;SDS011;1298;51.252;6.802;2023-09-07T05:44:09;838.88;;;780.88;;
2576;SDS011;1298;51.252;6.802;2023-09-07T05:46:55;813.22;;;756.30;;
2576;SDS011;1298;51.252;6.802;2023-09-07T05:49:43;811.00;;;753.90;;
2576;SDS011;1298;51.252;6.802;2023-09-07T05:52:29;900.50;;;840.67;;
2576;SDS011;1298;51.252;6.802;2023-09-07T05:55:14;839.67;;;781.45;;
2576;SDS011;1298;51.252;6.802;2023-09-07T05:58:03;911.45;;;850.97;;
2576;SDS011;1298;51.252;6.802;2023-09-07T06:00:50;828.40;;;770.70;;
2576;SDS011;1298;51.252;6.802;2023-09-07T06:03:36;845.92;;;787.60;;
2576;SDS011;1298;51.252;6.802;2023-09-07T06:06:24;858.15;;;799.42;;
2576;SDS011;1298;51.252;6.802;2023-09-07T06:09:10;855.53;;;796.80;;
2576;SDS011;1298;51.252;6.802;2023-09-07T06:11:55;863.78;;;804.65;;
2576;SDS011;1298;51.252;6.802;2023-09-07T06:14:41;855.13;;;796.50;;
2576;SDS011;1298;51.252;6.802;2023-09-07T06:17:27;862.03;;;802.90;;
2576;SDS011;1298;51.252;6.802;2023-09-07T06:20:13;845.25;;;786.88;;
2576;SDS011;1298;51.252;6.802;2023-09-07T06:23:00;918.30;;;857.63;;
2576;SDS011;1298;51.252;6.802;2023-09-07T06:25:45;860.05;;;801.17;;
2576;SDS011;1298;51.252;6.802;2023-09-07T06:28:31;859.42;;;800.75;;
2576;SDS011;1298;51.252;6.802;2023-09-07T06:31:17;863.85;;;804.53;;
2576;SDS011;1298;51.252;6.802;2023-09-07T06:34:03;865.75;;;806.83;;
2576;SDS011;1298;51.252;6.802;2023-09-07T06:36:48;866.28;;;807.38;;
2576;SDS011;1298;51.252;6.802;2023-09-07T06:39:35;867.65;;;808.40;;
2576;SDS011;1298;51.252;6.802;2023-09-07T06:42:21;854.67;;;796.22;;
2576;SDS011;1298;51.252;6.802;2023-09-07T06:45:08;887.58;;;827.97;;
2576;SDS011;1298;51.252;6.802;2023-09-07T06:47:54;931.10;;;870.03;;
2576;SDS011;1298;51.252;6.802;2023-09-07T06:50:40;871.13;;;811.67;;
2576;SDS011;1298;51.252;6.802;2023-09-07T06:53:26;870.95;;;811.55;;
2576;SDS011;1298;51.252;6.802;2023-09-07T06:56:13;948.70;;;886.42;;
2576;SDS011;1298;51.252;6.802;2023-09-07T06:58:58;892.25;;;831.67;;
2576;SDS011;1298;51.252;6.802;2023-09-07T07:01:44;936.60;;;874.45;;
2576;SDS011;1298;51.252;6.802;2023-09-07T07:04:30;1156.30;;;999.90;;
2576;SDS011;1298;51.252;6.802;2023-09-07T07:07:15;948.05;;;886.00;;
2576;SDS011;1298;51.252;6.802;2023-09-07T07:10:01;901.55;;;840.97;;
2576;SDS011;1298;51.252;6.802;2023-09-07T07:12:48;973.45;;;910.53;;
2576;SDS011;1298;51.252;6.802;2023-09-07T07:15:34;980.05;;;916.67;;
2576;SDS011;1298;51.252;6.802;2023-09-07T07:18:19;918.08;;;857.40;;
2576;SDS011;1298;51.252;6.802;2023-09-07T07:21:06;921.08;;;860.00;;
2576;SDS011;1298;51.252;6.802;2023-09-07T07:23:52;969.75;;;906.97;;
2576;SDS011;1298;51.252;6.802;2023-09-07T07:26:38;944.85;;;882.85;;
2576;SDS011;1298;51.252;6.802;2023-09-07T07:29:25;992.15;;;928.35;;
2576;SDS011;1298;51.252;6.802;2023-09-07T07:32:10;984.17;;;920.90;;
2576;SDS011;1298;51.252;6.802;2023-09-07T07:34:56;941.15;;;879.42;;
2576;SDS011;1298;51.252;6.802;2023-09-07T07:37:41;993.75;;;929.85;;
2576;SDS011;1298;51.252;6.802;2023-09-07T07:40:27;996.45;;;932.25;;
2576;SDS011;1298;51.252;6.802;2023-09-07T07:43:12;1000.95;;;936.72;;
2576;SDS011;1298;51.252;6.802;2023-09-07T07:45:59;1018.25;;;952.72;;
2576;SDS011;1298;51.252;6.802;2023-09-07T07:48:45;964.05;;;901.42;;
2576;SDS011;1298;51.252;6.802;2023-09-07T07:51:30;953.55;;;890.80;;
2576;SDS011;1298;51.252;6.802;2023-09-07T07:54:16;1017.10;;;952.03;;
2576;SDS011;1298;51.252;6.802;2023-09-07T07:57:01;1029.80;;;964.05;;
2576;SDS011;1298;51.252;6.802;2023-09-07T07:59:46;972.65;;;909.53;;
2576;SDS011;1298;51.252;6.802;2023-09-07T08:02:33;968.17;;;904.90;;
2576;SDS011;1298;51.252;6.802;2023-09-07T08:05:19;974.57;;;911.23;;
2576;SDS011;1298;51.252;6.802;2023-09-07T08:08:05;984.13;;;920.47;;
2576;SDS011;1298;51.252;6.802;2023-09-07T08:10:50;1013.73;;;948.67;;
2576;SDS011;1298;51.252;6.802;2023-09-07T08:13:36;971.97;;;908.90;;
2576;SDS011;1298;51.252;6.802;2023-09-07T08:16:21;991.37;;;927.20;;
2576;SDS011;1298;51.252;6.802;2023-09-07T08:19:08;995.43;;;931.50;;
2576;SDS011;1298;51.252;6.802;2023-09-07T08:21:54;994.63;;;930.63;;
2576;SDS011;1298;51.252;6.802;2023-09-07T08:24:39;993.27;;;929.00;;
2576;SDS011;1298;51.252;6.802;2023-09-07T08:27:26;995.80;;;931.10;;
2576;SDS011;1298;51.252;6.802;2023-09-07T08:30:12;1055.83;;;988.83;;
2576;SDS011;1298;51.252;6.802;2023-09-07T08:32:59;1013.93;;;949.17;;
2576;SDS011;1298;51.252;6.802;2023-09-07T08:35:52;1010.00;;;945.30;;
2576;SDS011;1298;51.252;6.802;2023-09-07T08:38:38;999.53;;;934.83;;
2576;SDS011;1298;51.252;6.802;2023-09-07T08:41:24;1005.13;;;940.03;;
2576;SDS011;1298;51.252;6.802;2023-09-07T08:44:10;1023.23;;;957.83;;
2576;SDS011;1298;51.252;6.802;2023-09-07T08:46:59;1077.40;;;999.90;;
2576;SDS011;1298;51.252;6.802;2023-09-07T08:49:47;1077.20;;;999.90;;
2576;SDS011;1298;51.252;6.802;2023-09-07T08:52:35;1027.83;;;962.47;;
2576;SDS011;1298;51.252;6.802;2023-09-07T08:55:20;1014.67;;;949.27;;
2576;SDS011;1298;51.252;6.802;2023-09-07T08:58:06;1030.80;;;964.75;;
2576;SDS011;1298;51.252;6.802;2023-09-07T09:00:52;1050.30;;;983.73;;
2576;SDS011;1298;51.252;6.802;2023-09-07T09:03:41;1068.03;;;996.93;;
2576;SDS011;1298;51.252;6.802;2023-09-07T09:06:27;1017.80;;;952.33;;
2576;SDS011;1298;51.252;6.802;2023-09-07T09:09:21;1042.47;;;976.07;;
2576;SDS011;1298;51.252;6.802;2023-09-07T09:12:08;1086.13;;;999.90;;
2576;SDS011;1298;51.252;6.802;2023-09-07T09:14:54;1039.00;;;973.13;;
2576;SDS011;1298;51.252;6.802;2023-09-07T09:17:39;1028.17;;;962.00;;
2576;SDS011;1298;51.252;6.802;2023-09-07T09:20:25;1047.30;;;980.93;;
2576;SDS011;1298;51.252;6.802;2023-09-07T09:23:11;1028.37;;;962.40;;
2576;SDS011;1298;51.252;6.802;2023-09-07T09:26:00;1094.03;;;999.90;;
2576;SDS011;1298;51.252;6.802;2023-09-07T09:28:47;1073.73;;;999.00;;
2576;SDS011;1298;51.252;6.802;2023-09-07T09:31:34;1033.83;;;967.40;;
2576;SDS011;1298;51.252;6.802;2023-09-07T09:34:20;1047.73;;;981.33;;
2576;SDS011;1298;51.252;6.802;2023-09-07T09:37:12;1101.13;;;999.90;;
2576;SDS011;1298;51.252;6.802;2023-09-07T09:39:58;1108.63;;;999.90;;
2576;SDS011;1298;51.252;6.802;2023-09-07T09:42:46;1038.30;;;972.00;;
2576;SDS011;1298;51.252;6.802;2023-09-07T09:45:32;1069.00;;;997.07;;
2576;SDS011;1298;51.252;6.802;2023-09-07T09:48:19;1056.10;;;989.03;;
2576;SDS011;1298;51.252;6.802;2023-09-07T09:51:05;1053.27;;;986.00;;
2576;SDS011;1298;51.252;6.802;2023-09-07T09:53:52;1064.67;;;994.47;;
2576;SDS011;1298;51.252;6.802;2023-09-07T09:56:38;1059.17;;;991.17;;
2576;SDS011;1298;51.252;6.802;2023-09-07T09:59:25;1086.37;;;999.90;;
2576;SDS011;1298;51.252;6.802;2023-09-07T10:02:11;1054.97;;;987.63;;
2576;SDS011;1298;51.252;6.802;2023-09-07T10:04:57;1067.10;;;995.90;;
2576;SDS011;1298;51.252;6.802;2023-09-07T10:07:47;1051.70;;;984.57;;
2576;SDS011;1298;51.252;6.802;2023-09-07T10:10:33;1128.63;;;999.90;;
2576;SDS011;1298;51.252;6.802;2023-09-07T10:13:28;1123.57;;;999.90;;
2576;SDS011;1298;51.252;6.802;2023-09-07T10:16:16;1122.13;;;999.90;;
2576;SDS011;1298;51.252;6.802;2023-09-07T10:19:02;1078.40;;;999.90;;
2576;SDS011;1298;51.252;6.802;2023-09-07T10:21:58;1103.20;;;999.90;;
2576;SDS011;1298;51.252;6.802;2023-09-07T10:24:43;1104.07;;;999.90;;
2576;SDS011;1298;51.252;6.802;2023-09-07T10:27:36;1087.53;;;999.90;;
2576;SDS011;1298;51.252;6.802;2023-09-07T10:30:23;1099.13;;;999.90;;
2576;SDS011;1298;51.252;6.802;2023-09-07T10:33:19;1125.63;;;999.90;;
2576;SDS011;1298;51.252;6.802;2023-09-07T10:36:05;1075.47;;;998.90;;
2576;SDS011;1298;51.252;6.802;2023-09-07T10:38:51;1135.57;;;999.90;;
2576;SDS011;1298;51.252;6.802;2023-09-07T10:41:41;1073.60;;;998.33;;
2576;SDS011;1298;51.252;6.802;2023-09-07T10:44:28;1152.57;;;999.90;;
2576;SDS011;1298;51.252;6.802;2023-09-07T10:47:14;1096.80;;;999.90;;
2576;SDS011;1298;51.252;6.802;2023-09-07T10:50:01;1155.27;;;999.90;;
2576;SDS011;1298;51.252;6.802;2023-09-07T10:52:46;1150.83;;;999.90;;
2576;SDS011;1298;51.252;6.802;2023-09-07T10:55:35;1079.90;;;999.90;;
2576;SDS011;1298;51.252;6.802;2023-09-07T10:58:25;1092.13;;;999.90;;
2576;SDS011;1298;51.252;6.802;2023-09-07T11:01:12;1099.33;;;999.90;;
2576;SDS011;1298;51.252;6.802;2023-09-07T11:03:57;1108.90;;;999.90;;
2576;SDS011;1298;51.252;6.802;2023-09-07T11:06:44;1158.00;;;999.90;;
2576;SDS011;1298;51.252;6.802;2023-09-07T11:09:30;1099.60;;;999.90;;
2576;SDS011;1298;51.252;6.802;2023-09-07T11:12:15;1147.30;;;999.90;;
2576;SDS011;1298;51.252;6.802;2023-09-07T11:15:01;1101.23;;;999.90;;
2576;SDS011;1298;51.252;6.802;2023-09-07T11:17:47;1146.90;;;999.90;;
2576;SDS011;1298;51.252;6.802;2023-09-07T11:20:36;1089.87;;;999.90;;
2576;SDS011;1298;51.252;6.802;2023-09-07T11:23:24;1088.37;;;999.90;;
2576;SDS011;1298;51.252;6.802;2023-09-07T11:26:10;1110.03;;;999.90;;
2576;SDS011;1298;51.252;6.802;2023-09-07T11:28:56;1170.40;;;999.90;;
2576;SDS011;1298;51.252;6.802;2023-09-07T11:31:42;1099.77;;;999.90;;
2576;SDS011;1298;51.252;6.802;2023-09-07T11:34:27;1162.30;;;999.90;;
2576;SDS011;1298;51.252;6.802;2023-09-07T11:37:13;1105.37;;;999.90;;
2576;SDS011;1298;51.252;6.802;2023-09-07T11:40:00;1123.30;;;999.90;;
2576;SDS011;1298;51.252;6.802;2023-09-07T11:42:48;1114.07;;;999.90;;
2576;SDS011;1298;51.252;6.802;2023-09-07T11:45:33;1132.17;;;999.90;;
2576;SDS011;1298;51.252;6.802;2023-09-07T11:48:19;1129.03;;;999.90;;
2576;SDS011;1298;51.252;6.802;2023-09-07T11:51:05;1112.23;;;999.90;;
2576;SDS011;1298;51.252;6.802;2023-09-07T11:53:51;1178.80;;;999.90;;
2576;SDS011;1298;51.252;6.802;2023-09-07T11:56:38;1172.00;;;999.90;;
2576;SDS011;1298;51.252;6.802;2023-09-07T11:59:26;1170.10;;;999.90;;
2576;SDS011;1298;51.252;6.802;2023-09-07T12:02:12;1118.83;;;999.90;;
2576;SDS011;1298;51.252;6.802;2023-09-07T12:04:58;1109.87;;;999.90;;
2576;SDS011;1298;51.252;6.802;2023-09-07T12:07:46;1107.30;;;999.90;;
2576;SDS011;1298;51.252;6.802;2023-09-07T12:10:32;1149.77;;;999.90;;
2576;SDS011;1298;51.252;6.802;2023-09-07T12:13:19;1105.37;;;999.90;;
2576;SDS011;1298;51.252;6.802;2023-09-07T12:16:04;1166.90;;;999.90;;
2576;SDS011;1298;51.252;6.802;2023-09-07T12:18:51;1110.67;;;999.90;;
2576;SDS011;1298;51.252;6.802;2023-09-07T12:21:36;1106.03;;;999.90;;
2576;SDS011;1298;51.252;6.802;2023-09-07T12:24:22;1141.43;;;999.90;;
2576;SDS011;1298;51.252;6.802;2023-09-07T12:27:08;1104.37;;;999.90;;
2576;SDS011;1298;51.252;6.802;2023-09-07T12:29:54;1135.47;;;999.90;;
2576;SDS011;1298;51.252;6.802;2023-09-07T12:32:40;1189.83;;;999.90;;
2576;SDS011;1298;51.252;6.802;2023-09-07T12:35:25;1124.73;;;999.90;;
2576;SDS011;1298;51.252;6.802;2023-09-07T12:38:11;1148.63;;;999.90;;
2576;SDS011;1298;51.252;6.802;2023-09-07T12:41:00;1126.20;;;999.90;;
2576;SDS011;1298;51.252;6.802;2023-09-07T12:43:46;1117.13;;;999.90;;
2576;SDS011;1298;51.252;6.802;2023-09-07T12:46:33;1176.73;;;999.90;;
2576;SDS011;1298;51.252;6.802;2023-09-07T12:49:19;1119.50;;;999.90;;
2576;SDS011;1298;51.252;6.802;2023-09-07T12:52:05;1154.70;;;999.90;;
2576;SDS011;1298;51.252;6.802;2023-09-07T12:54:52;1142.70;;;999.90;;
2576;SDS011;1298;51.252;6.802;2023-09-07T12:57:37;1167.90;;;999.90;;
2576;SDS011;1298;51.252;6.802;2023-09-07T13:00:24;1158.17;;;999.90;;
2576;SDS011;1298;51.252;6.802;2023-09-07T13:03:11;1224.00;;;999.90;;
2576;SDS011;1298;51.252;6.802;2023-09-07T13:05:56;1173.27;;;999.90;;
2576;SDS011;1298;51.252;6.802;2023-09-07T13:08:42;1203.90;;;999.90;;
2576;SDS011;1298;51.252;6.802;2023-09-07T13:11:28;1242.00;;;999.90;;
2576;SDS011;1298;51.252;6.802;2023-09-07T13:14:14;1222.07;;;999.90;;
2576;SDS011;1298;51.252;6.802;2023-09-07T13:16:59;1219.87;;;999.90;;
2576;SDS011;1298;51.252;6.802;2023-09-07T13:19:46;1235.03;;;999.90;;
2576;SDS011;1298;51.252;6.802;2023-09-07T13:22:32;1271.23;;;999.90;;
2576;SDS011;1298;51.252;6.802;2023-09-07T13:25:18;1290.97;;;999.90;;
2576;SDS011;1298;51.252;6.802;2023-09-07T13:28:04;1231.70;;;999.90;;
2576;SDS011;1298;51.252;6.802;2023-09-07T13:30:49;1276.47;;;999.90;;
2576;SDS011;1298;51.252;6.802;2023-09-07T13:33:35;1295.47;;;999.90;;
2576;SDS011;1298;51.252;6.802;2023-09-07T13:36:22;1243.37;;;999.90;;
2576;SDS011;1298;51.252;6.802;2023-09-07T13:39:08;1252.50;;;999.90;;
2576;SDS011;1298;51.252;6.802;2023-09-07T13:41:53;1242.53;;;999.90;;
2576;SDS011;1298;51.252;6.802;2023-09-07T13:44:39;1293.10;;;999.90;;
2576;SDS011;1298;51.252;6.802;2023-09-07T13:47:24;1261.70;;;999.90;;
2576;SDS011;1298;51.252;6.802;2023-09-07T13:50:10;1305.37;;;999.90;;
2576;SDS011;1298;51.252;6.802;2023-09-07T13:52:57;1260.93;;;999.90;;
2576;SDS011;1298;51.252;6.802;2023-09-07T13:55:43;1253.47;;;999.90;;
2576;SDS011;1298;51.252;6.802;2023-09-07T13:58:30;1287.30;;;999.90;;
2576;SDS011;1298;51.252;6.802;2023-09-07T14:01:15;1284.07;;;999.90;;
2576;SDS011;1298;51.252;6.802;2023-09-07T14:04:01;1267.17;;;999.90;;
2576;SDS011;1298;51.252;6.802;2023-09-07T14:06:47;1309.67;;;999.90;;
2576;SDS011;1298;51.252;6.802;2023-09-07T14:09:34;1280.80;;;999.90;;
2576;SDS011;1298;51.252;6.802;2023-09-07T14:12:20;1267.70;;;999.90;;
2576;SDS011;1298;51.252;6.802;2023-09-07T14:15:06;1310.73;;;999.90;;
2576;SDS011;1298;51.252;6.802;2023-09-07T14:17:52;1286.07;;;999.90;;
2576;SDS011;1298;51.252;6.802;2023-09-07T14:20:37;1310.27;;;999.90;;
2576;SDS011;1298;51.252;6.802;2023-09-07T14:23:23;1268.40;;;999.90;;
2576;SDS011;1298;51.252;6.802;2023-09-07T14:26:10;1255.97;;;999.90;;
2576;SDS011;1298;51.252;6.802;2023-09-07T14:28:56;1310.37;;;999.90;;
2576;SDS011;1298;51.252;6.802;2023-09-07T14:31:41;1282.97;;;999.90;;
2576;SDS011;1298;51.252;6.802;2023-09-07T14:34:27;1313.27;;;999.90;;
2576;SDS011;1298;51.252;6.802;2023-09-07T14:37:13;1267.77;;;999.90;;
2576;SDS011;1298;51.252;6.802;2023-09-07T14:39:58;1285.10;;;999.90;;
2576;SDS011;1298;51.252;6.802;2023-09-07T14:42:45;1287.23;;;999.90;;
2576;SDS011;1298;51.252;6.802;2023-09-07T14:45:31;1311.53;;;999.90;;
2576;SDS011;1298;51.252;6.802;2023-09-07T14:48:16;1270.90;;;999.90;;
2576;SDS011;1298;51.252;6.802;2023-09-07T14:51:02;1269.37;;;999.90;;
2576;SDS011;1298;51.252;6.802;2023-09-07T14:53:47;1263.77;;;999.90;;
2576;SDS011;1298;51.252;6.802;2023-09-07T14:56:33;1269.17;;;999.90;;
2576;SDS011;1298;51.252;6.802;2023-09-07T14:59:20;1259.37;;;999.90;;
2576;SDS011;1298;51.252;6.802;2023-09-07T15:02:06;1270.40;;;999.90;;
2576;SDS011;1298;51.252;6.802;2023-09-07T15:04:51;1276.07;;;999.90;;
2576;SDS011;1298;51.252;6.802;2023-09-07T15:07:37;1259.77;;;999.90;;
2576;SDS011;1298;51.252;6.802;2023-09-07T15:10:22;1311.53;;;999.90;;
2576;SDS011;1298;51.252;6.802;2023-09-07T15:13:09;1272.33;;;999.90;;
2576;SDS011;1298;51.252;6.802;2023-09-07T15:15:56;1272.67;;;999.90;;
2576;SDS011;1298;51.252;6.802;2023-09-07T15:18:42;1269.40;;;999.90;;
2576;SDS011;1298;51.252;6.802;2023-09-07T15:21:27;1265.67;;;999.90;;
2576;SDS011;1298;51.252;6.802;2023-09-07T15:24:13;1277.07;;;999.90;;
2576;SDS011;1298;51.252;6.802;2023-09-07T15:27:10;1296.43;;;999.90;;
2576;SDS011;1298;51.252;6.802;2023-09-07T15:29:57;1286.63;;;999.90;;
2576;SDS011;1298;51.252;6.802;2023-09-07T15:32:43;1284.80;;;999.90;;
2576;SDS011;1298;51.252;6.802;2023-09-07T15:35:28;1272.20;;;999.90;;
2576;SDS011;1298;51.252;6.802;2023-09-07T15:38:14;1260.53;;;999.90;;
2576;SDS011;1298;51.252;6.802;2023-09-07T15:40:59;1310.37;;;999.90;;
2576;SDS011;1298;51.252;6.802;2023-09-07T15:43:49;1292.70;;;999.90;;
2576;SDS011;1298;51.252;6.802;2023-09-07T15:46:35;1262.63;;;999.90;;
2576;SDS011;1298;51.252;6.802;2023-09-07T15:49:21;1269.30;;;999.90;;
2576;SDS011;1298;51.252;6.802;2023-09-07T15:52:06;1268.50;;;999.90;;
2576;SDS011;1298;51.252;6.802;2023-09-07T15:54:52;1306.47;;;999.90;;
2576;SDS011;1298;51.252;6.802;2023-09-07T15:57:38;1280.07;;;999.90;;
2576;SDS011;1298;51.252;6.802;2023-09-07T16:00:24;1261.77;;;999.90;;
2576;SDS011;1298;51.252;6.802;2023-09-07T16:03:10;1251.67;;;999.90;;
2576;SDS011;1298;51.252;6.802;2023-09-07T16:05:56;1290.13;;;999.90;;
2576;SDS011;1298;51.252;6.802;2023-09-07T16:08:42;1256.63;;;999.90;;
2576;SDS011;1298;51.252;6.802;2023-09-07T16:11:27;1286.07;;;999.90;;